Time;durP1;ratioP1;P1;durP2;ratioP2;P2;SDS_P1;SDS_P2;PMS_P1;PMS_P2;Temp;Humidity;BMP_temperature;BMP_pressure;BME280_temperature;BME280_humidity;BME280_pressure;Samples;Min_cycle;Max_cycle;Signal;HPM_P1;HPM_P2
2022/01/16 00:00:40;;;;;;;21.92;10.95;;;1.80;99.90;;;;;;5074637;28;20073;-61
2022/01/16 00:05:54;;;;;;;20.13;11.25;;;1.70;99.90;;;;;;5073494;28;20027;-61
2022/01/16 00:08:19;;;;;;;21.52;12.10;;;1.70;99.90;;;;;;5071972;28;20040;-61
2022/01/16 00:10:45;;;;;;;18.48;10.30;;;1.70;99.90;;;;;;5072164;28;20043;-61
2022/01/16 00:13:11;;;;;;;17.55;10.23;;;1.70;99.90;;;;;;5069721;28;20042;-61
2022/01/16 00:15:36;;;;;;;20.67;11.18;;;1.70;99.90;;;;;;5075290;28;20559;-61
2022/01/16 00:20:31;;;;;;;17.50;9.57;;;1.70;99.90;;;;;;5075227;28;20111;-61
2022/01/16 00:22:58;;;;;;;16.98;11.10;;;1.70;99.90;;;;;;5076011;28;20050;-61
2022/01/16 00:25:24;;;;;;;24.65;12.65;;;1.70;99.90;;;;;;5077017;28;20444;-61
2022/01/16 00:27:50;;;;;;;20.08;9.98;;;1.60;99.90;;;;;;5074094;28;20016;-61
2022/01/16 00:30:16;;;;;;;15.98;9.63;;;1.60;99.90;;;;;;5075461;28;20131;-61
2022/01/16 00:32:42;;;;;;;13.43;9.13;;;1.50;99.90;;;;;;5075192;28;20088;-61
2022/01/16 00:35:08;;;;;;;22.58;11.10;;;1.50;99.90;;;;;;5078031;28;20044;-61
2022/01/16 00:37:33;;;;;;;;;;;1.40;99.90;;;;;;5075535;28;20032;-61
2022/01/16 00:39:59;;;;;;;24.23;11.13;;;1.50;99.90;;;;;;5073299;28;19927;-61
2022/01/16 00:42:24;;;;;;;16.83;10.10;;;1.60;99.90;;;;;;5067296;28;20477;-61
2022/01/16 00:44:50;;;;;;;17.40;9.75;;;1.60;99.90;;;;;;5070556;28;20047;-61
2022/01/16 00:47:16;;;;;;;18.05;10.13;;;1.70;99.90;;;;;;5068419;28;20461;-61
2022/01/16 00:49:41;;;;;;;;;;;1.60;99.90;;;;;;5071935;28;20036;-61
2022/01/16 00:52:08;;;;;;;15.90;9.18;;;1.60;99.90;;;;;;5059600;22;20581;-61
2022/01/16 00:54:35;;;;;;;19.98;9.90;;;1.50;99.90;;;;;;5053945;28;20020;-61
2022/01/16 00:57:01;;;;;;;20.55;11.68;;;1.50;99.90;;;;;;5049900;28;20032;-61
2022/01/16 00:59:26;;;;;;;20.08;10.73;;;1.40;99.90;;;;;;5058518;28;20035;-61
2022/01/16 01:01:52;;;;;;;21.02;12.32;;;1.40;99.90;;;;;;5037179;28;20482;-61
2022/01/16 01:04:17;;;;;;;20.85;10.15;;;1.30;99.90;;;;;;5045291;28;20048;-61
2022/01/16 01:06:47;;;;;;;20.77;10.20;;;1.30;99.90;;;;;;5040317;28;20021;-61
2022/01/16 01:09:13;;;;;;;19.80;10.63;;;1.40;99.90;;;;;;5043640;28;20040;-61
2022/01/16 01:11:40;;;;;;;23.45;10.18;;;1.40;99.90;;;;;;5038957;28;20037;-61
2022/01/16 01:16:50;;;;;;;17.88;10.18;;;1.40;99.90;;;;;;5042170;28;20497;-61
2022/01/16 01:19:17;;;;;;;19.80;9.05;;;1.40;99.90;;;;;;5040969;28;20033;-61
2022/01/16 01:21:42;;;;;;;23.40;10.55;;;1.40;99.90;;;;;;5043535;28;20029;-61
2022/01/16 01:24:08;;;;;;;17.73;10.77;;;1.40;99.90;;;;;;5042874;28;20052;-61
2022/01/16 01:26:42;;;;;;;18.20;12.00;;;1.40;99.90;;;;;;5040614;28;20555;-61
2022/01/16 01:29:08;;;;;;;17.25;9.77;;;1.30;99.90;;;;;;5034585;28;20029;-62
2022/01/16 01:31:33;;;;;;;23.83;11.27;;;1.30;99.90;;;;;;5039083;28;20083;-61
2022/01/16 01:33:59;;;;;;;19.40;10.32;;;1.20;99.90;;;;;;5042013;28;20033;-62
2022/01/16 01:36:24;;;;;;;26.10;11.68;;;1.20;99.90;;;;;;5041976;28;20116;-61
2022/01/16 01:38:50;;;;;;;16.50;9.75;;;1.20;99.90;;;;;;5041096;28;20040;-61
2022/01/16 01:41:16;;;;;;;17.70;11.48;;;1.30;99.90;;;;;;5036940;28;20029;-61
2022/01/16 01:51:44;;;;;;;18.50;9.90;;;1.30;99.90;;;;;;5042497;28;20075;-61
2022/01/16 01:54:11;;;;;;;22.58;10.65;;;1.30;99.90;;;;;;5044099;28;20104;-61
2022/01/16 01:56:39;;;;;;;15.35;9.27;;;1.40;99.90;;;;;;5040670;28;20090;-61
2022/01/16 01:59:05;;;;;;;16.83;10.20;;;1.30;99.90;;;;;;5043677;28;20393;-61
2022/01/16 02:01:32;;;;;;;16.35;9.90;;;1.30;99.90;;;;;;5038790;28;20021;-61
2022/01/16 02:03:58;;;;;;;15.65;10.48;;;1.30;99.90;;;;;;5041575;28;20056;-61
2022/01/16 02:06:28;;;;;;;16.33;11.10;;;1.30;99.90;;;;;;5043487;28;20474;-61
2022/01/16 02:08:59;;;;;;;17.30;9.75;;;1.30;99.90;;;;;;5041334;28;20033;-61
2022/01/16 02:11:28;;;;;;;15.27;10.27;;;1.30;99.90;;;;;;5043139;28;20040;-61
2022/01/16 02:30:52;;;;;;;13.77;9.40;;;1.40;99.90;;;;;;5040101;28;20036;-61
2022/01/16 02:35:37;;;;;;;19.40;11.35;;;1.30;99.90;;;;;;5043311;28;20033;-61
2022/01/16 02:38:05;;;;;;;13.48;8.35;;;1.30;99.90;;;;;;5039725;28;20029;-62
2022/01/16 02:40:30;;;;;;;18.17;9.68;;;1.30;99.90;;;;;;5043872;28;20038;-61
2022/01/16 02:42:56;;;;;;;14.57;9.80;;;1.30;99.90;;;;;;5037793;28;20223;-61
2022/01/16 02:45:30;;;;;;;17.08;9.38;;;1.40;99.90;;;;;;5041720;28;20034;-61
2022/01/16 02:47:59;;;;;;;16.00;10.55;;;1.40;99.90;;;;;;5041498;28;20767;-62
2022/01/16 02:50:24;;;;;;;13.60;9.77;;;1.40;99.90;;;;;;5042228;28;20052;-61
2022/01/16 02:52:50;;;;;;;18.35;8.88;;;1.40;99.90;;;;;;5036455;28;20611;-61
2022/01/16 02:55:19;;;;;;;18.13;12.30;;;1.40;99.90;;;;;;5044909;28;20052;-61
2022/01/16 02:57:45;;;;;;;16.88;9.23;;;1.40;99.90;;;;;;5040997;28;20056;-61
2022/01/16 03:00:11;;;;;;;15.65;9.38;;;1.50;99.90;;;;;;5038318;28;20056;-61
2022/01/16 03:02:36;;;;;;;17.13;11.00;;;1.40;99.90;;;;;;5036619;28;20119;-61
2022/01/16 03:05:03;;;;;;;12.32;8.65;;;1.40;99.90;;;;;;5042397;28;20510;-61
2022/01/16 03:07:28;;;;;;;12.23;9.23;;;1.40;99.90;;;;;;5041041;28;20473;-62
2022/01/16 03:12:50;;;;;;;14.63;9.13;;;1.20;99.90;;;;;;5037340;28;20128;-61
2022/01/16 03:15:17;;;;;;;14.27;10.10;;;1.20;99.90;;;;;;5042315;28;20502;-61
2022/01/16 03:23:08;;;;;;;15.70;8.75;;;1.30;99.90;;;;;;5040758;28;20128;-61
2022/01/16 03:25:34;;;;;;;14.38;9.55;;;1.30;99.90;;;;;;5045942;28;20113;-61
2022/01/16 03:27:59;;;;;;;16.77;8.45;;;1.30;99.90;;;;;;5042148;28;20052;-61
2022/01/16 03:30:25;;;;;;;13.02;8.57;;;1.30;99.90;;;;;;5043343;28;20168;-61
2022/01/16 03:32:50;;;;;;;15.27;9.38;;;1.30;99.90;;;;;;5042316;28;20049;-61
2022/01/16 03:35:16;;;;;;;12.93;9.77;;;1.30;99.90;;;;;;5045049;28;20032;-61
2022/01/16 03:37:41;;;;;;;12.57;7.93;;;1.30;99.90;;;;;;5045447;28;20029;-61
2022/01/16 03:40:10;;;;;;;12.80;9.20;;;1.20;99.90;;;;;;5043490;28;20559;-61
2022/01/16 03:42:37;;;;;;;14.57;9.43;;;1.20;99.90;;;;;;5044854;28;20028;-61
2022/01/16 03:45:05;;;;;;;19.40;11.27;;;1.30;99.90;;;;;;5045700;28;20021;-61
2022/01/16 03:47:30;;;;;;;14.18;9.85;;;1.30;99.90;;;;;;5045773;28;20021;-61
2022/01/16 03:49:56;;;;;;;12.63;8.48;;;1.30;99.90;;;;;;5044077;28;20035;-61
2022/01/16 03:52:21;;;;;;;18.35;11.30;;;1.40;99.90;;;;;;5045413;28;20029;-61
2022/01/16 03:54:47;;;;;;;12.23;8.73;;;1.40;99.90;;;;;;5046970;28;20525;-61
2022/01/16 03:57:12;;;;;;;17.98;8.80;;;1.50;99.90;;;;;;5045954;28;20520;-62
2022/01/16 03:59:38;;;;;;;10.73;7.25;;;1.50;99.90;;;;;;5056684;22;20049;-57
2022/01/16 04:02:04;;;;;;;14.30;7.47;;;1.40;99.90;;;;;;5045850;28;20033;-58
2022/01/16 04:04:30;;;;;;;11.25;8.43;;;1.40;99.90;;;;;;5049037;28;20068;-54
2022/01/16 04:06:56;;;;;;;;;;;1.40;99.90;;;;;;5048306;28;20037;-55
2022/01/16 04:09:21;;;;;;;11.85;6.65;;;1.30;99.90;;;;;;5046684;28;19908;-55
2022/01/16 04:11:56;;;;;;;9.25;6.75;;;1.30;99.90;;;;;;5048392;28;20108;-55
2022/01/16 04:15:31;;;;;;;13.85;7.35;;;1.30;99.90;;;;;;5047486;28;20028;-55
2022/01/16 04:17:13;;;;;;;10.23;7.30;;;1.30;99.90;;;;;;5045875;28;20047;-59
2022/01/16 04:19:39;;;;;;;12.75;7.43;;;1.30;99.90;;;;;;5047136;28;20517;-57
2022/01/16 04:22:04;;;;;;;12.38;7.53;;;1.30;99.90;;;;;;5047377;28;20029;-58
2022/01/16 04:24:30;;;;;;;11.48;8.00;;;1.40;99.90;;;;;;5046587;28;20033;-53
2022/01/16 04:26:56;;;;;;;15.63;7.65;;;1.40;99.90;;;;;;5045772;28;20142;-57
2022/01/16 04:29:21;;;;;;;10.32;7.22;;;1.40;99.90;;;;;;5046242;28;20106;-54
2022/01/16 04:31:47;;;;;;;13.60;8.45;;;1.40;99.90;;;;;;5046113;28;20032;-56
2022/01/16 04:34:12;;;;;;;9.82;6.53;;;1.40;99.90;;;;;;5047928;28;20380;-57
2022/01/16 04:36:38;;;;;;;12.45;8.20;;;1.50;99.90;;;;;;5046880;28;20100;-56
2022/01/16 04:39:12;;;;;;;12.70;7.88;;;1.50;99.90;;;;;;5048083;28;20032;-55
2022/01/16 04:44:22;;;;;;;10.57;7.85;;;1.60;99.90;;;;;;5047976;28;20106;-53
2022/01/16 04:46:47;;;;;;;10.30;7.65;;;1.60;99.90;;;;;;5045868;28;20057;-55
2022/01/16 04:49:13;;;;;;;11.45;6.78;;;1.60;99.90;;;;;;5047194;28;20029;-56
2022/01/16 04:51:38;;;;;;;15.05;7.97;;;1.60;99.90;;;;;;5046659;28;20032;-57
2022/01/16 04:54:04;;;;;;;12.10;7.90;;;1.70;99.90;;;;;;5047409;28;20041;-55
2022/01/16 04:56:30;;;;;;;14.98;9.10;;;1.70;99.90;;;;;;5046540;28;20021;-54
2022/01/16 04:58:55;;;;;;;16.70;10.75;;;1.80;99.90;;;;;;5047035;28;20041;-56
2022/01/16 05:01:22;;;;;;;15.88;9.02;;;1.80;99.90;;;;;;5046188;28;20035;-58
2022/01/16 05:03:47;;;;;;;15.10;8.20;;;1.90;99.90;;;;;;5046377;28;20086;-58
2022/01/16 05:06:14;;;;;;;14.93;8.80;;;2.00;99.90;;;;;;5046885;28;20028;-55
2022/01/16 05:08:39;;;;;;;;;;;2.10;99.90;;;;;;5048437;28;20029;-56
2022/01/16 05:11:06;;;;;;;16.05;8.52;;;2.20;99.90;;;;;;5045566;28;20370;-57
2022/01/16 05:18:50;;;;;;;16.87;9.43;;;2.30;99.90;;;;;;5048045;28;20036;-58
2022/01/16 05:21:15;;;;;;;14.45;9.18;;;2.30;99.90;;;;;;5044860;28;20025;-55
2022/01/16 05:23:42;;;;;;;13.45;8.88;;;2.30;99.90;;;;;;5047226;28;20029;-53
2022/01/16 05:26:08;;;;;;;16.27;8.95;;;2.40;99.90;;;;;;5045907;28;20053;-55
2022/01/16 05:28:33;;;;;;;16.60;9.43;;;2.40;99.90;;;;;;5046786;28;20106;-56
2022/01/16 05:30:59;;;;;;;15.20;9.10;;;2.50;99.90;;;;;;5045008;28;20021;-58
2022/01/16 05:33:24;;;;;;;12.23;7.30;;;2.50;99.90;;;;;;5046159;28;20037;-59
2022/01/16 05:35:50;;;;;;;13.52;8.07;;;2.50;99.90;;;;;;5045698;28;20033;-55
2022/01/16 05:38:15;;;;;;;12.13;7.80;;;2.50;99.90;;;;;;5043737;28;20025;-58
2022/01/16 05:40:43;;;;;;;18.73;9.73;;;2.50;99.90;;;;;;5045357;28;20036;-56
2022/01/16 05:43:09;;;;;;;14.82;7.75;;;2.50;99.90;;;;;;5044455;28;20033;-58
2022/01/16 05:45:35;;;;;;;15.45;7.47;;;2.60;99.90;;;;;;5043595;28;20043;-56
2022/01/16 05:48:01;;;;;;;13.52;8.30;;;2.60;99.90;;;;;;5046499;28;20099;-55
2022/01/16 05:50:27;;;;;;;16.55;8.63;;;2.60;99.90;;;;;;5044293;28;20112;-56
2022/01/16 05:52:52;;;;;;;;;;;2.60;99.90;;;;;;5046424;28;20024;-58
2022/01/16 05:55:19;;;;;;;10.65;6.45;;;2.60;99.90;;;;;;5044323;28;19916;-57
2022/01/16 05:57:45;;;;;;;12.45;6.65;;;2.60;99.90;;;;;;5045515;28;20033;-59
2022/01/16 06:00:12;;;;;;;10.95;6.50;;;2.60;99.90;;;;;;5043807;28;20440;-57
2022/01/16 06:02:38;;;;;;;14.70;7.00;;;2.60;99.90;;;;;;5060481;28;20052;-59
2022/01/16 06:05:05;;;;;;;13.02;6.93;;;2.70;99.90;;;;;;5045698;28;20067;-55
2022/01/16 06:07:31;;;;;;;11.13;6.72;;;2.70;99.90;;;;;;5044532;28;20051;-58
2022/01/16 06:09:56;;;;;;;7.63;4.43;;;2.70;99.90;;;;;;5045008;28;20553;-53
2022/01/16 06:12:22;;;;;;;14.85;8.18;;;2.70;99.90;;;;;;5043761;28;20090;-54
2022/01/16 06:14:48;;;;;;;11.45;6.45;;;2.70;99.90;;;;;;5044396;28;20105;-57
2022/01/16 06:17:13;;;;;;;9.10;5.60;;;2.70;99.90;;;;;;5045278;28;20033;-57
2022/01/16 06:19:39;;;;;;;11.18;5.30;;;2.70;99.90;;;;;;5045122;28;20028;-58
2022/01/16 06:22:05;;;;;;;9.93;6.50;;;2.70;99.90;;;;;;5045204;28;20056;-55
2022/01/16 06:24:31;;;;;;;12.23;7.05;;;2.70;99.90;;;;;;5042993;28;20029;-55
2022/01/16 06:26:56;;;;;;;11.38;6.63;;;2.70;99.90;;;;;;5045814;28;20063;-58
2022/01/16 06:29:24;;;;;;;7.40;4.97;;;2.70;99.90;;;;;;5042977;28;20128;-56
2022/01/16 06:31:49;;;;;;;9.70;6.25;;;2.70;99.90;;;;;;5044628;28;20055;-53
2022/01/16 06:34:15;;;;;;;10.85;6.10;;;2.70;99.90;;;;;;5044447;28;20515;-58
2022/01/16 06:36:41;;;;;;;8.32;5.05;;;2.70;99.90;;;;;;5045210;28;20043;-58
2022/01/16 06:39:09;;;;;;;8.45;5.10;;;2.70;99.90;;;;;;5044040;28;20091;-58
2022/01/16 06:41:34;;;;;;;8.20;5.43;;;2.70;99.90;;;;;;5045707;28;20029;-56
2022/01/16 06:44:01;;;;;;;12.30;6.28;;;2.70;99.90;;;;;;5045023;28;20047;-57
2022/01/16 06:46:27;;;;;;;9.98;5.28;;;2.70;99.90;;;;;;5043571;28;20037;-55
2022/01/16 06:48:52;;;;;;;;;;;2.80;99.90;;;;;;5044712;28;20059;-52
2022/01/16 06:51:19;;;;;;;6.90;4.03;;;2.80;99.90;;;;;;5045561;28;19974;-57
2022/01/16 06:53:49;;;;;;;6.82;4.60;;;2.80;99.90;;;;;;5044312;28;20049;-57
2022/01/16 06:56:17;;;;;;;10.25;5.97;;;2.70;99.90;;;;;;5044938;28;20096;-54
2022/01/16 06:58:43;;;;;;;12.40;6.53;;;2.80;99.90;;;;;;5046577;28;20073;-53
2022/01/16 07:01:10;;;;;;;7.68;4.97;;;2.80;99.90;;;;;;5048113;28;20024;-58
2022/01/16 07:03:37;;;;;;;8.43;5.90;;;2.80;99.90;;;;;;5048430;28;20032;-56
2022/01/16 07:06:03;;;;;;;10.52;6.32;;;2.80;99.90;;;;;;5048754;28;20029;-55
2022/01/16 07:08:29;;;;;;;11.55;5.95;;;2.80;99.90;;;;;;5048199;28;20438;-53
2022/01/16 07:10:57;;;;;;;11.38;5.90;;;2.80;99.90;;;;;;5048843;28;20021;-55
2022/01/16 07:13:23;;;;;;;9.27;5.70;;;2.80;99.90;;;;;;5048508;28;20025;-59
2022/01/16 07:15:49;;;;;;;9.20;5.38;;;2.80;99.90;;;;;;5048991;28;20497;-56
2022/01/16 07:18:15;;;;;;;;;;;2.80;99.90;;;;;;5049745;28;20563;-56
2022/01/16 07:20:43;;;;;;;7.80;4.65;;;2.80;99.90;;;;;;5047646;28;20377;-56
2022/01/16 07:23:09;;;;;;;8.60;6.25;;;2.80;99.90;;;;;;5047808;28;20036;-58
2022/01/16 07:25:35;;;;;;;;;;;2.80;99.90;;;;;;5049330;28;20032;-59
2022/01/16 07:28:00;;;;;;;7.90;5.60;;;2.80;99.90;;;;;;5047644;28;20003;-56
2022/01/16 07:30:26;;;;;;;9.32;5.65;;;2.80;99.90;;;;;;5048738;28;20119;-55
2022/01/16 07:32:52;;;;;;;8.82;4.68;;;2.80;99.90;;;;;;5048407;28;20048;-55
2022/01/16 07:35:17;;;;;;;8.65;4.97;;;2.80;99.90;;;;;;5048688;28;20021;-58
2022/01/16 07:37:43;;;;;;;8.38;6.10;;;2.90;99.90;;;;;;5046722;28;20037;-57
2022/01/16 07:40:10;;;;;;;9.95;5.32;;;2.90;99.90;;;;;;5046449;28;20033;-58
2022/01/16 07:42:36;;;;;;;7.07;4.60;;;2.80;99.90;;;;;;5048032;28;20794;-58
2022/01/16 07:45:02;;;;;;;;;;;2.90;99.90;;;;;;5047913;28;20059;-57
2022/01/16 07:47:27;;;;;;;8.25;5.05;;;2.90;99.90;;;;;;5047877;28;19919;-57
2022/01/16 07:49:53;;;;;;;9.88;5.53;;;2.90;99.90;;;;;;5047091;28;20025;-58
2022/01/16 07:52:18;;;;;;;11.95;5.88;;;2.90;99.90;;;;;;5046575;28;20039;-57
2022/01/16 07:54:44;;;;;;;9.30;6.63;;;2.90;99.90;;;;;;5044937;28;20063;-57
2022/01/16 07:57:09;;;;;;;10.77;6.53;;;2.90;99.90;;;;;;5047153;28;20064;-56
2022/01/16 07:59:35;;;;;;;10.27;6.57;;;3.00;99.90;;;;;;5046844;28;20025;-57
2022/01/16 08:02:01;;;;;;;10.02;6.03;;;3.00;99.90;;;;;;5047606;28;20108;-58
2022/01/16 08:04:26;;;;;;;8.93;5.40;;;3.00;99.90;;;;;;5045615;28;20020;-57
2022/01/16 08:06:52;;;;;;;8.35;5.40;;;3.00;99.90;;;;;;5045532;28;20493;-59
2022/01/16 08:09:17;;;;;;;10.00;6.30;;;3.00;99.90;;;;;;5046108;28;20393;-59
2022/01/16 08:11:43;;;;;;;9.25;6.15;;;3.00;99.90;;;;;;5047661;28;20091;-55
2022/01/16 08:14:08;;;;;;;11.65;6.68;;;3.00;99.90;;;;;;5046843;28;20031;-58
2022/01/16 08:16:34;;;;;;;11.80;7.55;;;3.00;99.90;;;;;;5045940;28;20033;-57
2022/01/16 08:18:59;;;;;;;9.40;6.22;;;3.10;99.90;;;;;;5047459;28;20035;-55
2022/01/16 08:21:25;;;;;;;8.73;6.30;;;3.10;99.90;;;;;;5047917;28;20036;-58
2022/01/16 08:23:51;;;;;;;8.07;5.93;;;3.10;99.90;;;;;;5046825;28;20029;-56
2022/01/16 08:26:17;;;;;;;14.35;8.15;;;3.10;99.90;;;;;;5043578;28;20076;-57
2022/01/16 08:28:42;;;;;;;11.23;6.88;;;3.10;99.90;;;;;;5044787;28;20501;-55
2022/01/16 08:31:08;;;;;;;14.55;9.73;;;3.10;99.90;;;;;;5047013;28;20039;-53
2022/01/16 08:33:33;;;;;;;13.68;8.80;;;3.10;99.90;;;;;;5046586;28;20036;-57
2022/01/16 08:35:59;;;;;;;15.95;10.18;;;3.10;99.90;;;;;;5047806;28;20045;-56
2022/01/16 08:38:26;;;;;;;13.25;7.80;;;3.20;99.90;;;;;;5046655;28;20147;-55
2022/01/16 08:40:52;;;;;;;13.13;8.80;;;3.20;99.90;;;;;;5046976;28;20021;-57
2022/01/16 08:43:17;;;;;;;14.13;9.35;;;3.20;99.90;;;;;;5047198;28;20432;-55
2022/01/16 08:45:43;;;;;;;20.65;9.90;;;3.20;99.90;;;;;;5046984;28;20039;-58
2022/01/16 08:48:09;;;;;;;15.80;10.45;;;3.20;99.90;;;;;;5048015;28;20059;-54
2022/01/16 08:50:36;;;;;;;17.60;9.70;;;3.20;99.90;;;;;;5045599;28;20036;-53
2022/01/16 08:53:02;;;;;;;17.45;10.23;;;3.20;99.90;;;;;;5045752;28;20116;-58
2022/01/16 08:55:28;;;;;;;17.88;11.57;;;3.20;99.90;;;;;;5046041;28;20124;-60
2022/01/16 08:57:54;;;;;;;17.33;10.32;;;3.30;99.90;;;;;;5046946;28;20036;-56
2022/01/16 09:00:19;;;;;;;18.60;12.93;;;3.30;99.90;;;;;;5046282;28;20021;-57
2022/01/16 09:02:45;;;;;;;28.92;15.43;;;3.30;99.90;;;;;;5045083;28;20021;-56
2022/01/16 09:05:11;;;;;;;16.50;10.70;;;3.60;99.90;;;;;;5046187;28;20856;-58
2022/01/16 09:07:37;;;;;;;23.05;12.90;;;4.30;99.90;;;;;;5045252;28;20094;-59
2022/01/16 09:10:04;;;;;;;24.08;12.88;;;4.20;99.90;;;;;;5047194;28;20371;-57
2022/01/16 09:12:30;;;;;;;28.90;14.80;;;4.00;99.90;;;;;;5045736;28;20078;-60
2022/01/16 09:14:56;;;;;;;23.40;12.43;;;3.90;99.90;;;;;;5046640;28;20037;-56
2022/01/16 09:17:23;;;;;;;24.52;14.48;;;3.80;99.90;;;;;;5043280;28;20036;-59
2022/01/16 09:19:48;;;;;;;20.60;13.07;;;3.80;99.90;;;;;;5047003;28;20037;-59
2022/01/16 09:22:14;;;;;;;24.73;14.52;;;3.70;99.90;;;;;;5044917;28;20044;-57
2022/01/16 09:24:40;;;;;;;26.42;14.52;;;3.70;99.90;;;;;;5046342;28;20489;-57
2022/01/16 09:27:06;;;;;;;24.27;13.43;;;3.70;99.90;;;;;;5046587;28;20102;-58
2022/01/16 09:29:31;;;;;;;29.83;16.60;;;3.70;99.90;;;;;;5045633;28;20490;-60
2022/01/16 09:31:57;;;;;;;23.55;14.85;;;3.70;99.90;;;;;;5042366;28;20040;-59
2022/01/16 09:34:22;;;;;;;23.73;14.60;;;3.70;99.90;;;;;;5044202;28;20742;-58
2022/01/16 09:36:48;;;;;;;25.05;14.13;;;3.70;99.90;;;;;;5042290;28;20369;-59
2022/01/16 09:39:14;;;;;;;26.13;13.48;;;3.70;99.90;;;;;;5045599;28;20032;-59
2022/01/16 09:41:42;;;;;;;24.92;14.45;;;3.70;99.90;;;;;;5045066;28;20120;-56
2022/01/16 09:44:08;;;;;;;24.02;13.45;;;3.70;99.90;;;;;;5045416;28;20385;-59
2022/01/16 09:46:35;;;;;;;23.83;14.20;;;3.80;99.90;;;;;;5045369;28;20025;-59
2022/01/16 09:49:01;;;;;;;22.20;14.50;;;3.80;99.90;;;;;;5044789;28;20120;-59
2022/01/16 09:51:27;;;;;;;23.92;14.23;;;3.80;99.90;;;;;;5043690;28;20024;-59
2022/01/16 09:53:53;;;;;;;25.63;13.43;;;3.90;99.90;;;;;;5045309;28;20035;-58
2022/01/16 09:56:18;;;;;;;;;;;3.90;99.90;;;;;;5045941;28;20134;-57
2022/01/16 09:58:44;;;;;;;19.58;12.55;;;4.30;99.90;;;;;;5046500;28;19909;-59
2022/01/16 10:01:10;;;;;;;25.65;13.82;;;4.60;99.90;;;;;;5045388;28;20071;-57
2022/01/16 10:03:43;;;;;;;22.25;14.23;;;4.60;99.90;;;;;;5045867;28;20024;-57
2022/01/16 10:06:15;;;;;;;23.52;15.75;;;4.40;99.90;;;;;;5045324;28;20118;-58
2022/01/16 10:08:42;;;;;;;27.02;15.68;;;4.30;99.90;;;;;;5045084;28;20029;-57
2022/01/16 10:11:21;;;;;;;24.10;15.45;;;4.20;99.90;;;;;;5068132;22;20234;-73
2022/01/16 10:13:58;;;;;;;23.33;14.10;;;4.10;99.90;;;;;;5054375;28;20032;-72
2022/01/16 10:16:36;;;;;;;21.15;14.30;;;4.10;99.90;;;;;;5054150;28;20032;-72
2022/01/16 10:19:01;;;;;;;24.23;14.02;;;4.10;99.90;;;;;;5056801;28;20060;-72
2022/01/16 10:21:32;;;;;;;20.85;12.35;;;4.10;99.90;;;;;;5050553;28;20059;-73
2022/01/16 10:23:58;;;;;;;19.65;12.48;;;4.10;99.90;;;;;;5038267;28;20025;-73
2022/01/16 10:26:24;;;;;;;23.27;13.45;;;4.10;99.90;;;;;;5041286;28;20390;-74
2022/01/16 10:28:51;;;;;;;22.77;13.40;;;4.10;99.90;;;;;;5041463;28;20040;-73
2022/01/16 10:31:27;;;;;;;24.73;13.82;;;4.10;99.90;;;;;;5038117;28;20036;-74
2022/01/16 10:33:54;;;;;;;25.15;15.63;;;4.10;99.90;;;;;;5038539;28;20030;-72
2022/01/16 10:36:34;;;;;;;22.33;12.77;;;4.10;99.90;;;;;;5041724;28;20439;-72
2022/01/16 10:39:10;;;;;;;23.60;14.70;;;4.10;99.90;;;;;;5037502;28;20079;-72
2022/01/16 10:41:36;;;;;;;;;;;4.10;99.90;;;;;;5042800;28;20020;-72
2022/01/16 10:44:02;;;;;;;23.60;14.18;;;4.20;99.90;;;;;;5044010;28;19913;-71
2022/01/16 10:46:27;;;;;;;22.02;13.07;;;4.10;99.90;;;;;;5044566;28;20036;-71
2022/01/16 10:49:13;;;;;;;29.10;14.95;;;4.10;99.90;;;;;;5045664;28;20112;-71
2022/01/16 10:51:39;;;;;;;24.40;14.80;;;4.10;99.90;;;;;;5043679;28;20030;-70
2022/01/16 10:54:31;;;;;;;27.70;14.88;;;4.10;99.90;;;;;;5044830;28;20174;-71
2022/01/16 10:56:57;;;;;;;27.52;15.85;;;4.10;99.90;;;;;;5045047;28;20029;-71
2022/01/16 10:59:24;;;;;;;30.58;17.67;;;4.10;99.90;;;;;;5046255;28;20033;-71
2022/01/16 11:02:06;;;;;;;26.85;15.55;;;4.10;99.90;;;;;;5052488;28;20116;-71
2022/01/16 11:04:31;;;;;;;28.25;15.95;;;4.10;99.90;;;;;;5035435;28;20032;-71
2022/01/16 11:07:05;;;;;;;28.58;17.42;;;4.10;99.90;;;;;;5045119;28;20108;-71
2022/01/16 11:09:32;;;;;;;32.20;17.00;;;4.10;99.90;;;;;;5045110;28;20345;-72
2022/01/16 11:12:01;;;;;;;31.45;17.20;;;4.00;99.90;;;;;;5042772;28;20043;-71
2022/01/16 11:14:28;;;;;;;31.63;17.50;;;4.10;99.90;;;;;;5045915;28;20037;-71
2022/01/16 11:16:58;;;;;;;29.45;15.95;;;4.00;99.90;;;;;;5040013;28;20040;-71
2022/01/16 11:19:26;;;;;;;30.85;15.48;;;4.10;99.90;;;;;;5044150;28;20029;-72
2022/01/16 11:21:57;;;;;;;32.67;17.15;;;4.10;99.90;;;;;;5044412;28;20099;-72
2022/01/16 11:26:51;;;;;;;30.77;18.30;;;4.10;99.90;;;;;;5042725;28;20036;-73
2022/01/16 11:29:17;;;;;;;33.67;19.25;;;4.10;99.90;;;;;;5043868;28;20017;-72
2022/01/16 11:31:48;;;;;;;33.58;18.63;;;4.10;99.90;;;;;;5037278;28;20033;-71
2022/01/16 11:34:13;;;;;;;30.52;17.67;;;4.10;99.90;;;;;;5045972;28;20056;-72
2022/01/16 11:36:40;;;;;;;29.85;17.63;;;4.10;99.90;;;;;;5038741;28;20551;-72
2022/01/16 11:39:09;;;;;;;33.28;17.25;;;4.10;99.90;;;;;;5045031;28;20029;-72
2022/01/16 11:41:46;;;;;;;30.58;17.35;;;4.10;99.90;;;;;;5032615;28;20038;-72
2022/01/16 11:44:29;;;;;;;51.90;22.63;;;4.10;99.90;;;;;;5040552;28;20029;-87
2022/01/16 11:47:00;;;;;;;29.73;18.02;;;4.50;99.90;;;;;;5046336;28;20044;-72
2022/01/16 11:49:42;;;;;;;37.58;18.85;;;5.40;99.90;;;;;;5048844;28;20063;-72
2022/01/16 11:52:13;;;;;;;34.97;19.45;;;5.30;99.90;;;;;;5042832;28;20041;-70
2022/01/16 11:54:45;;;;;;;31.73;16.55;;;5.10;99.90;;;;;;5042761;28;20034;-71
2022/01/16 11:57:22;;;;;;;27.00;16.50;;;4.90;99.90;;;;;;5037939;28;20037;-70
2022/01/16 11:59:54;;;;;;;27.52;17.50;;;4.70;99.90;;;;;;5038214;28;20041;-73
2022/01/16 12:02:24;;;;;;;32.38;17.77;;;4.60;99.90;;;;;;5045108;28;20394;-72
2022/01/16 12:04:54;;;;;;;28.92;16.00;;;4.50;99.90;;;;;;5045261;28;20104;-72
2022/01/16 12:07:20;;;;;;;29.92;17.60;;;4.50;99.90;;;;;;5045186;28;20052;-72
2022/01/16 12:09:51;;;;;;;;;;;4.40;99.90;;;;;;5044528;28;20021;-72
2022/01/16 12:12:16;;;;;;;26.48;14.95;;;4.40;99.90;;;;;;5046712;28;19927;-72
2022/01/16 12:14:50;;;;;;;33.40;18.73;;;4.40;99.90;;;;;;5045715;28;20511;-72
2022/01/16 12:17:39;;;;;;;30.38;17.65;;;4.40;99.90;;;;;;5048706;28;20116;-72
2022/01/16 12:20:17;;;;;;;29.77;17.13;;;4.40;99.90;;;;;;5048976;28;20036;-72
2022/01/16 12:22:55;;;;;;;25.63;16.90;;;4.40;99.90;;;;;;5048621;28;20481;-72
2022/01/16 12:25:30;;;;;;;33.70;19.73;;;4.40;99.90;;;;;;5049871;28;20040;-72
2022/01/16 12:28:06;;;;;;;33.58;18.48;;;4.40;99.90;;;;;;5048825;28;20017;-72
2022/01/16 12:30:38;;;;;;;33.45;19.45;;;4.40;99.90;;;;;;5047342;28;20488;-71
2022/01/16 12:33:16;;;;;;;33.70;18.30;;;4.40;99.90;;;;;;5049251;28;20555;-72
2022/01/16 12:35:42;;;;;;;36.10;20.02;;;4.40;99.90;;;;;;5049788;28;20028;-72
2022/01/16 12:38:09;;;;;;;31.40;18.25;;;4.50;99.90;;;;;;5049067;28;20438;-71
2022/01/16 12:40:35;;;;;;;32.38;18.52;;;4.50;99.90;;;;;;5048280;28;20336;-72
2022/01/16 12:43:04;;;;;;;37.10;20.05;;;4.50;99.90;;;;;;5048444;28;20017;-72
2022/01/16 12:45:39;;;;;;;30.45;18.25;;;4.50;99.90;;;;;;5047881;28;20081;-72
2022/01/16 12:48:06;;;;;;;30.83;17.70;;;4.60;99.90;;;;;;5046738;28;20032;-72
2022/01/16 12:50:32;;;;;;;31.98;18.17;;;4.50;99.90;;;;;;5048993;28;20022;-72
2022/01/16 12:52:58;;;;;;;;;;;4.60;99.90;;;;;;5048420;28;20032;-72
2022/01/16 12:55:31;;;;;;;31.83;18.73;;;4.60;99.90;;;;;;5048541;28;19924;-72
2022/01/16 12:58:20;;;;;;;35.63;20.70;;;4.60;99.90;;;;;;5047604;28;20113;-72
2022/01/16 13:01:03;;;;;;;38.15;19.45;;;4.60;99.90;;;;;;5047702;28;20094;-72
2022/01/16 13:03:31;;;;;;;37.83;20.13;;;4.70;99.90;;;;;;5048149;28;20025;-72
2022/01/16 13:06:18;;;;;;;32.80;19.42;;;4.70;99.90;;;;;;5046174;28;20501;-72
2022/01/16 13:09:07;;;;;;;35.50;20.75;;;4.70;99.90;;;;;;5047283;28;20032;-72
2022/01/16 13:11:44;;;;;;;34.20;20.73;;;4.70;99.90;;;;;;5047957;28;20115;-72
2022/01/16 13:14:13;;;;;;;33.35;20.80;;;4.80;99.90;;;;;;5046376;28;20083;-72
2022/01/16 13:16:45;;;;;;;35.13;19.98;;;4.80;99.90;;;;;;5048840;28;20028;-72
2022/01/16 13:19:16;;;;;;;40.65;20.95;;;4.80;99.90;;;;;;5049297;28;20025;-72
2022/01/16 13:21:43;;;;;;;40.40;21.17;;;4.80;99.90;;;;;;5044858;28;20021;-72
2022/01/16 13:24:21;;;;;;;41.15;22.45;;;4.80;99.90;;;;;;5045361;28;20092;-72
2022/01/16 13:26:47;;;;;;;41.58;21.65;;;4.80;99.90;;;;;;5044434;28;20029;-73
2022/01/16 13:29:15;;;;;;;40.08;21.50;;;4.80;99.90;;;;;;5043710;28;20024;-73
2022/01/16 13:31:41;;;;;;;40.78;23.33;;;4.80;99.90;;;;;;5041880;28;20032;-74
2022/01/16 13:34:08;;;;;;;39.55;21.83;;;4.90;99.90;;;;;;5040595;28;20514;-71
2022/01/16 13:36:34;;;;;;;40.67;23.17;;;4.90;99.90;;;;;;5046791;28;20033;-72
2022/01/16 13:39:00;;;;;;;42.60;22.13;;;4.90;99.90;;;;;;5047870;28;20433;-70
2022/01/16 13:41:25;;;;;;;42.65;23.30;;;4.90;99.90;;;;;;5048149;28;20032;-71
2022/01/16 13:43:51;;;;;;;39.35;24.50;;;4.90;99.90;;;;;;5040694;28;20480;-71